createdAt,value
2018-04-25T00:01:12.356Z,14.20
2018-04-25T00:03:40.114Z,14.20
2018-04-25T00:06:07.883Z,14.20
2018-04-25T00:08:35.354Z,14.20
2018-04-25T00:11:03.043Z,14.20
2018-04-25T00:13:30.514Z,14.20
2018-04-25T00:15:58.000Z,14.20
2018-04-25T00:18:25.449Z,14.20
2018-04-25T00:20:52.915Z,14.20
2018-04-25T00:23:20.698Z,14.20
2018-04-25T00:25:48.162Z,14.20
2018-04-25T00:28:15.628Z,14.20
2018-04-25T00:30:43.141Z,14.30
2018-04-25T00:33:10.762Z,14.30
2018-04-25T00:35:38.241Z,14.30
2018-04-25T00:38:05.732Z,14.40
2018-04-25T00:40:33.211Z,14.40
2018-04-25T00:43:00.874Z,14.40
2018-04-25T00:45:28.434Z,14.40
2018-04-25T00:47:57.410Z,14.40
2018-04-25T00:50:24.889Z,14.40
2018-04-25T00:52:52.360Z,14.50
2018-04-25T00:55:19.813Z,14.50
2018-04-25T00:57:47.356Z,14.60
2018-04-25T01:00:14.819Z,14.60
2018-04-25T01:02:42.291Z,14.70
2018-04-25T01:05:09.750Z,14.60
2018-04-25T01:07:37.994Z,14.60
2018-04-25T01:10:05.473Z,14.60
2018-04-25T01:12:32.946Z,14.70
2018-04-25T01:15:00.699Z,14.70
2018-04-25T01:17:28.462Z,14.70
2018-04-25T01:19:55.922Z,14.70
2018-04-25T01:22:23.399Z,14.70
2018-04-25T01:24:55.759Z,14.70
2018-04-25T01:27:23.510Z,14.70
2018-04-25T01:29:51.027Z,14.80
2018-04-25T01:32:18.486Z,14.80
2018-04-25T01:34:47.279Z,14.70
2018-04-25T01:37:26.251Z,14.80
2018-04-25T01:40:03.858Z,14.80
2018-04-25T01:42:45.946Z,14.90
2018-04-25T01:45:41.158Z,14.90
2018-04-25T01:48:13.950Z,14.90
2018-04-25T01:50:43.109Z,15.10
2018-04-25T01:53:22.434Z,15.10
2018-04-25T01:56:01.810Z,15.20
2018-04-25T01:58:41.049Z,15.10
2018-04-25T02:01:20.218Z,15.00
2018-04-25T02:03:58.842Z,15.10
2018-04-25T02:06:26.330Z,15.10
2018-04-25T02:08:53.786Z,15.10
2018-04-25T02:11:21.239Z,15.10
2018-04-25T02:13:48.710Z,15.20
2018-04-25T02:16:16.391Z,15.10
2018-04-25T02:18:44.158Z,15.10
2018-04-25T02:21:11.830Z,15.00
2018-04-25T02:23:39.295Z,14.90
2018-04-25T02:26:06.843Z,14.90
2018-04-25T02:28:34.602Z,14.90
2018-04-25T02:31:02.375Z,14.70
2018-04-25T02:33:29.835Z,14.70
2018-04-25T02:35:57.299Z,14.70
2018-04-25T02:38:24.754Z,14.70
2018-04-25T02:40:53.126Z,14.60
2018-04-25T02:43:20.726Z,14.70
2018-04-25T02:45:48.189Z,14.70
2018-04-25T02:48:15.658Z,14.70
2018-04-25T02:50:43.123Z,14.70
2018-04-25T02:53:10.722Z,14.70
2018-04-25T02:55:38.179Z,14.70
2018-04-25T02:58:05.946Z,14.70
2018-04-25T03:00:33.403Z,14.70
2018-04-25T03:03:01.174Z,14.70
2018-04-25T03:05:28.939Z,14.70
2018-04-25T03:07:56.621Z,14.70
2018-04-25T03:10:24.086Z,14.80
2018-04-25T03:12:51.542Z,14.70
2018-04-25T03:15:19.010Z,14.70
2018-04-25T03:17:46.636Z,14.70
2018-04-25T03:20:14.298Z,14.70
2018-04-25T03:22:41.749Z,14.70
2018-04-25T03:25:09.210Z,14.60
2018-04-25T03:27:36.673Z,14.60
2018-04-25T03:30:04.138Z,14.60
2018-04-25T03:32:31.910Z,14.60
2018-04-25T03:34:59.389Z,14.50
2018-04-25T03:37:27.030Z,14.60
2018-04-25T03:39:54.570Z,14.50
2018-04-25T03:42:22.030Z,14.50
2018-04-25T03:44:49.645Z,14.50
2018-04-25T03:47:17.118Z,14.50
2018-04-25T03:49:44.710Z,14.50
2018-04-25T03:52:12.403Z,14.50
2018-04-25T03:54:39.869Z,14.50
2018-04-25T03:57:07.392Z,14.40
2018-04-25T03:59:34.891Z,14.40
2018-04-25T04:02:02.529Z,14.40
2018-04-25T04:04:30.073Z,14.40
2018-04-25T04:06:57.542Z,14.30
2018-04-25T04:09:25.293Z,14.30
2018-04-25T04:11:53.058Z,14.30
2018-04-25T04:14:20.794Z,14.30
2018-04-25T04:16:48.285Z,14.30
2018-04-25T04:19:15.766Z,14.30
2018-04-25T04:21:43.411Z,14.20
2018-04-25T04:24:10.869Z,14.20
2018-04-25T04:26:39.277Z,14.20
2018-04-25T04:29:06.811Z,14.20
2018-04-25T04:31:34.262Z,14.20
2018-04-25T04:34:01.946Z,14.20
2018-04-25T04:36:29.488Z,14.20
2018-04-25T04:38:57.154Z,14.20
2018-04-25T04:41:24.624Z,14.10
2018-04-25T04:43:52.213Z,14.10
2018-04-25T04:46:19.676Z,14.10
2018-04-25T04:48:47.134Z,14.10
2018-04-25T04:51:14.754Z,14.00
2018-04-25T04:53:42.301Z,14.00
2018-04-25T04:56:09.777Z,13.90
2018-04-25T04:58:37.313Z,13.60
2018-04-25T05:01:04.773Z,13.50
2018-04-25T05:03:32.241Z,13.40
2018-04-25T05:05:59.702Z,13.40
2018-04-25T05:08:27.380Z,13.40
2018-04-25T05:10:55.514Z,13.40
2018-04-25T05:13:23.205Z,13.30
2018-04-25T05:15:50.913Z,13.40
2018-04-25T05:18:18.389Z,13.40
2018-04-25T05:20:45.850Z,13.30
2018-04-25T05:23:13.318Z,13.30
2018-04-25T05:25:40.792Z,13.30
2018-04-25T05:28:08.558Z,13.30
2018-04-25T05:30:36.024Z,13.30
2018-04-25T05:33:03.490Z,13.20
2018-04-25T05:35:30.955Z,13.10
2018-04-25T05:37:58.434Z,13.00
2018-04-25T05:40:26.162Z,12.80
2018-04-25T05:42:53.630Z,12.80
2018-04-25T05:45:21.116Z,12.70
2018-04-25T05:47:48.575Z,12.60
2018-04-25T05:50:16.045Z,12.60
2018-04-25T05:52:43.503Z,12.50
2018-04-25T05:55:11.170Z,12.40
2018-04-25T05:57:38.638Z,12.40
2018-04-25T06:00:06.097Z,12.30
2018-04-25T06:02:33.587Z,12.30
2018-04-25T06:05:01.042Z,12.20
2018-04-25T06:07:28.505Z,12.30
2018-04-25T06:09:55.975Z,12.30
2018-04-25T06:12:23.715Z,12.30
2018-04-25T06:14:52.110Z,12.20
2018-04-25T06:17:19.567Z,12.10
2018-04-25T06:19:47.331Z,12.10
2018-04-25T06:22:14.824Z,12.20
2018-04-25T06:24:42.550Z,12.30
2018-04-25T06:27:10.014Z,12.30
2018-04-25T06:29:37.467Z,12.40
2018-04-25T06:32:04.930Z,12.60
2018-04-25T06:34:32.692Z,12.70
2018-04-25T06:37:00.162Z,12.80
2018-04-25T06:39:27.658Z,12.80
2018-04-25T06:41:55.374Z,12.70
2018-04-25T06:44:23.021Z,12.70
2018-04-25T06:46:50.505Z,12.80
2018-04-25T06:49:17.970Z,12.80
2018-04-25T06:51:45.514Z,12.80
2018-04-25T06:54:13.282Z,12.80
2018-04-25T06:56:40.741Z,12.90
2018-04-25T06:59:08.215Z,13.00
2018-04-25T07:01:35.930Z,13.20
2018-04-25T07:04:03.391Z,13.20
2018-04-25T07:06:30.856Z,13.20
2018-04-25T07:08:58.329Z,13.10
2018-04-25T07:11:25.796Z,13.20
2018-04-25T07:13:53.549Z,13.10
2018-04-25T07:16:21.010Z,13.10
2018-04-25T07:18:48.474Z,13.40
2018-04-25T07:21:16.230Z,13.50
2018-04-25T07:23:43.742Z,13.90
2018-04-25T07:26:11.179Z,13.90
2018-04-25T07:28:38.891Z,13.90
2018-04-25T07:31:06.379Z,13.90
2018-04-25T07:33:34.139Z,14.00
2018-04-25T07:36:01.904Z,14.10
2018-04-25T07:38:29.672Z,14.20
2018-04-25T07:40:57.350Z,14.40
2018-04-25T07:43:24.891Z,14.50
2018-04-25T07:45:52.346Z,14.40
2018-04-25T07:48:19.816Z,14.10
2018-04-25T07:50:47.576Z,14.20
2018-04-25T07:53:15.090Z,14.10
2018-04-25T07:55:42.799Z,13.60
2018-04-25T07:58:10.422Z,13.40
2018-04-25T08:00:38.178Z,13.00
2018-04-25T08:03:05.726Z,12.90
2018-04-25T08:05:33.708Z,12.80
2018-04-25T08:08:01.170Z,13.00
2018-04-25T08:10:28.689Z,13.70
2018-04-25T08:13:07.900Z,14.70
2018-04-25T08:15:56.138Z,15.20
2018-04-25T08:18:35.542Z,15.50
2018-04-25T08:24:09.406Z,14.40
2018-04-25T08:26:36.874Z,15.20
2018-04-25T08:29:04.334Z,16.50
2018-04-25T08:31:31.997Z,17.00
2018-04-25T08:33:59.457Z,17.40
2018-04-25T08:36:27.129Z,17.10
2018-04-25T08:38:54.600Z,17.60
2018-04-25T08:41:22.138Z,18.70
2018-04-25T08:43:49.597Z,19.30
2018-04-25T08:46:17.213Z,18.90
2018-04-25T08:48:44.819Z,19.00
2018-04-25T08:51:12.279Z,19.70
2018-04-25T08:53:39.734Z,19.70
2018-04-25T08:56:07.199Z,19.00
2018-04-25T08:58:34.958Z,18.50
2018-04-25T09:01:02.647Z,18.30
2018-04-25T09:03:30.094Z,19.20
2018-04-25T09:05:57.641Z,20.80
2018-04-25T09:08:25.158Z,20.70
2018-04-25T09:10:52.617Z,20.40
2018-04-25T09:13:20.371Z,18.50
2018-04-25T09:15:47.786Z,17.90
2018-04-25T09:18:15.449Z,18.30
2018-04-25T09:20:42.910Z,18.50
2018-04-25T09:23:10.369Z,18.60
2018-04-25T09:25:37.831Z,17.70
2018-04-25T09:28:05.374Z,16.60
2018-04-25T09:30:34.338Z,15.90
2018-04-25T09:33:01.794Z,15.90
2018-04-25T09:35:29.262Z,15.80
2018-04-25T09:37:56.893Z,17.00
2018-04-25T09:40:24.433Z,18.20
2018-04-25T09:42:51.971Z,19.10
2018-04-25T09:45:19.430Z,19.60
2018-04-25T09:47:47.058Z,19.90
2018-04-25T09:50:14.514Z,19.10
2018-04-25T09:52:42.103Z,17.80
2018-04-25T09:55:11.101Z,16.20
2018-04-25T09:57:40.140Z,16.00
2018-04-25T10:00:07.568Z,16.00
2018-04-25T10:02:36.690Z,15.80
2018-04-25T10:05:04.274Z,15.90
2018-04-25T10:07:31.770Z,15.60
2018-04-25T10:09:59.311Z,15.50
2018-04-25T10:12:26.842Z,15.20
2018-04-25T10:14:54.305Z,15.10
2018-04-25T10:17:21.858Z,15.10
2018-04-25T10:19:49.366Z,15.10
2018-04-25T10:22:17.129Z,15.40
2018-04-25T10:24:44.894Z,15.90
2018-04-25T10:27:12.365Z,16.90
2018-04-25T10:29:39.835Z,17.30
2018-04-25T10:32:07.327Z,18.00
2018-04-25T10:34:35.039Z,18.70
2018-04-25T10:37:04.027Z,18.60
2018-04-25T10:39:31.487Z,18.60
2018-04-25T10:42:00.455Z,19.50
2018-04-25T10:44:27.938Z,19.50
2018-04-25T10:46:56.934Z,20.80
2018-04-25T10:49:24.422Z,20.70
2018-04-25T10:51:51.933Z,22.10
2018-04-25T10:54:19.573Z,23.20
2018-04-25T10:56:47.027Z,23.10
2018-04-25T10:59:14.508Z,21.40
2018-04-25T11:01:41.968Z,20.50
2018-04-25T11:04:09.684Z,20.10
2018-04-25T11:06:37.137Z,20.40
2018-04-25T11:09:04.682Z,20.60
2018-04-25T11:11:32.439Z,20.50
2018-04-25T11:14:00.160Z,20.00
2018-04-25T11:16:27.618Z,20.70
2018-04-25T11:18:55.277Z,21.80
2018-04-25T11:21:22.812Z,22.40
2018-04-25T11:23:50.294Z,21.10
2018-04-25T11:26:17.801Z,19.80
2018-04-25T11:28:45.414Z,19.30
2018-04-25T11:31:12.887Z,19.20
2018-04-25T11:33:40.389Z,19.40
2018-04-25T11:36:07.933Z,19.60
2018-04-25T11:38:36.930Z,18.60
2018-04-25T11:41:05.926Z,18.30
2018-04-25T11:43:33.398Z,18.30
2018-04-25T11:46:01.058Z,18.30
2018-04-25T11:48:28.518Z,17.90
2018-04-25T11:50:55.988Z,17.70
2018-04-25T11:53:23.522Z,17.50
2018-04-25T11:55:52.498Z,17.20
2018-04-25T11:58:19.957Z,17.30
2018-04-25T12:00:47.590Z,17.40
2018-04-25T12:03:15.144Z,17.30
2018-04-25T12:05:42.658Z,17.30
2018-04-25T12:08:11.958Z,17.40
2018-04-25T12:10:39.414Z,17.50
2018-04-25T12:13:06.932Z,18.30
2018-04-25T12:15:34.494Z,20.00
2018-04-25T12:18:02.011Z,21.80
2018-04-25T12:20:29.708Z,22.70
2018-04-25T12:22:57.164Z,23.30
2018-04-25T12:25:24.778Z,24.30
2018-04-25T12:27:53.460Z,23.50
2018-04-25T12:30:20.922Z,21.40
2018-04-25T12:32:48.374Z,20.80
2018-04-25T12:35:15.855Z,20.10
2018-04-25T12:37:43.603Z,19.90
2018-04-25T12:40:11.529Z,20.00
2018-04-25T12:42:38.985Z,21.10
2018-04-25T12:45:06.727Z,21.70
2018-04-25T12:47:35.136Z,21.30
2018-04-25T12:50:02.604Z,21.30
2018-04-25T12:52:30.197Z,20.70
2018-04-25T12:54:57.653Z,20.20
2018-04-25T12:57:25.139Z,20.10
2018-04-25T12:59:52.593Z,20.10
2018-04-25T13:02:20.042Z,20.20
2018-04-25T13:04:47.510Z,20.00
2018-04-25T13:07:15.160Z,18.80
2018-04-25T13:09:42.707Z,18.10
2018-04-25T13:12:11.669Z,17.10
2018-04-25T13:14:39.158Z,17.10
2018-04-25T13:17:06.618Z,17.00
2018-04-25T13:19:34.070Z,16.70
2018-04-25T13:22:01.534Z,16.90
2018-04-25T13:24:30.536Z,18.20
2018-04-25T13:26:57.998Z,18.20
2018-04-25T13:29:25.454Z,18.10
2018-04-25T13:31:54.580Z,17.60
2018-04-25T13:34:22.119Z,17.60
2018-04-25T13:36:49.662Z,17.30
2018-04-25T13:39:17.119Z,16.90
2018-04-25T13:41:44.570Z,16.60
2018-04-25T13:44:12.043Z,16.10
2018-04-25T13:46:40.327Z,15.60
2018-04-25T13:49:07.804Z,15.50
2018-04-25T13:51:36.264Z,16.70
2018-04-25T13:54:05.247Z,18.10
2018-04-25T13:56:32.723Z,18.10
2018-04-25T13:59:00.491Z,19.40
2018-04-25T14:01:28.563Z,19.50
2018-04-25T14:03:56.362Z,19.70
2018-04-25T14:06:24.078Z,20.10
2018-04-25T14:08:51.938Z,21.00
2018-04-25T14:11:19.389Z,21.70
2018-04-25T14:13:46.985Z,22.70
2018-04-25T14:16:14.439Z,23.50
2018-04-25T14:18:41.979Z,23.10
2018-04-25T14:21:09.902Z,21.70
2018-04-25T14:23:37.667Z,20.50
2018-04-25T14:26:05.198Z,19.80
2018-04-25T14:28:32.666Z,19.00
2018-04-25T14:31:00.202Z,18.80
2018-04-25T14:33:27.890Z,19.00
2018-04-25T14:35:55.367Z,19.20
2018-04-25T14:38:22.882Z,19.30
2018-04-25T14:40:50.350Z,18.80
2018-04-25T14:43:17.810Z,18.80
2018-04-25T14:45:45.538Z,18.70
2018-04-25T14:48:13.172Z,18.40
2018-04-25T14:50:40.775Z,17.90
2018-04-25T14:53:08.339Z,17.50
2018-04-25T14:55:35.801Z,17.10
2018-04-25T14:58:03.370Z,17.00
2018-04-25T15:00:30.916Z,16.90
2018-04-25T15:02:58.697Z,16.80
2018-04-25T15:05:26.207Z,16.60
2018-04-25T15:07:53.705Z,16.50
2018-04-25T15:10:21.171Z,16.40
2018-04-25T15:12:48.621Z,16.40
2018-04-25T15:15:16.095Z,17.50
2018-04-25T15:17:43.548Z,18.80
2018-04-25T15:20:11.195Z,18.50
2018-04-25T15:22:38.662Z,17.80
2018-04-25T15:25:07.634Z,17.10
2018-04-25T15:27:35.102Z,17.10
2018-04-25T15:30:03.027Z,16.80
2018-04-25T15:32:30.638Z,16.90
2018-04-25T15:34:58.118Z,16.60
2018-04-25T15:37:25.817Z,16.50
2018-04-25T15:39:53.475Z,16.50
2018-04-25T15:42:21.372Z,16.40
2018-04-25T15:44:49.633Z,16.10
2018-04-25T15:47:17.227Z,16.10
2018-04-25T15:49:44.697Z,15.70
2018-04-25T15:52:12.177Z,15.50
2018-04-25T15:54:40.410Z,15.50
2018-04-25T15:57:07.889Z,15.40
2018-04-25T15:59:35.385Z,15.50
2018-04-25T16:02:02.906Z,15.60
2018-04-25T16:04:30.398Z,15.60
2018-04-25T16:06:57.873Z,15.60
2018-04-25T16:09:25.599Z,15.70
2018-04-25T16:11:53.343Z,15.70
2018-04-25T16:14:20.810Z,15.80
2018-04-25T16:16:50.261Z,16.00
2018-04-25T16:19:18.025Z,15.90
2018-04-25T16:21:45.542Z,16.00
2018-04-25T16:24:13.025Z,15.90
2018-04-25T16:26:40.948Z,15.90
2018-04-25T16:29:08.426Z,15.90
2018-04-25T16:31:36.121Z,15.90
2018-04-25T16:34:03.604Z,15.70
2018-04-25T16:36:31.080Z,15.60
2018-04-25T16:38:58.612Z,15.50
2018-04-25T16:41:26.217Z,15.50
2018-04-25T16:43:53.935Z,15.50
2018-04-25T16:46:21.477Z,15.50
2018-04-25T16:48:49.333Z,15.60
2018-04-25T16:51:17.566Z,15.60
2018-04-25T16:53:45.363Z,15.60
2018-04-25T16:56:12.813Z,15.60
2018-04-25T16:58:40.299Z,15.50
2018-04-25T17:01:07.761Z,15.30
2018-04-25T17:03:35.222Z,15.20
2018-04-25T17:06:02.894Z,15.20
2018-04-25T17:08:30.347Z,15.20
2018-04-25T17:10:57.868Z,15.10
2018-04-25T17:13:25.357Z,15.00
2018-04-25T17:15:53.094Z,15.00
2018-04-25T17:18:20.704Z,15.10
2018-04-25T17:20:48.314Z,15.20
2018-04-25T17:23:16.085Z,15.20
2018-04-25T17:25:43.550Z,15.20
2018-04-25T17:28:11.226Z,15.20
2018-04-25T17:30:38.690Z,15.20
2018-04-25T17:33:06.644Z,15.10
2018-04-25T17:35:34.446Z,15.00
2018-04-25T17:38:01.949Z,14.90
2018-04-25T17:40:29.415Z,14.80
2018-04-25T17:42:56.873Z,14.70
2018-04-25T17:45:25.050Z,14.70
2018-04-25T17:47:52.625Z,14.50
2018-04-25T17:50:20.842Z,14.30
2018-04-25T17:52:48.336Z,14.30
2018-04-25T17:55:15.802Z,14.30
2018-04-25T17:57:43.719Z,14.30
2018-04-25T18:00:11.327Z,14.20
2018-04-25T18:02:38.963Z,14.10
2018-04-25T18:05:06.550Z,14.00
2018-04-25T18:07:34.779Z,13.90
2018-04-25T18:10:02.852Z,13.80
2018-04-25T18:12:30.371Z,13.80
2018-04-25T18:14:57.841Z,13.60
2018-04-25T18:17:25.388Z,13.60
2018-04-25T18:19:53.149Z,13.50
2018-04-25T18:22:20.967Z,13.50
2018-04-25T18:24:48.383Z,13.50
2018-04-25T18:27:15.843Z,13.40
2018-04-25T18:29:43.302Z,13.30
2018-04-25T18:32:10.965Z,13.20
2018-04-25T18:34:38.503Z,13.20
2018-04-25T18:37:05.965Z,13.10
2018-04-25T18:39:33.577Z,13.00
2018-04-25T18:42:01.651Z,13.10
2018-04-25T18:44:29.721Z,13.10
2018-04-25T18:46:57.428Z,13.10
2018-04-25T18:49:25.332Z,13.00
2018-04-25T18:51:52.862Z,12.90
2018-04-25T18:54:20.325Z,12.90
2018-04-25T18:56:48.078Z,12.80
2018-04-25T18:59:15.700Z,12.80
2018-04-25T19:01:43.258Z,12.70
2018-04-25T19:04:10.724Z,12.70
2018-04-25T19:06:38.546Z,12.70
2018-04-25T19:09:06.453Z,12.70
2018-04-25T19:11:34.526Z,12.80
2018-04-25T19:14:02.568Z,12.80
2018-04-25T19:16:30.131Z,12.70
2018-04-25T19:18:57.820Z,12.70
2018-04-25T19:21:25.281Z,12.70
2018-04-25T19:23:52.779Z,12.60
2018-04-25T19:26:20.319Z,12.60
2018-04-25T19:28:47.782Z,12.70
2018-04-25T19:31:15.262Z,12.80
2018-04-25T19:33:43.218Z,12.70
2018-04-25T19:36:11.254Z,12.80
2018-04-25T19:38:39.299Z,12.80
2018-04-25T19:41:06.934Z,12.80
2018-04-25T19:43:34.398Z,12.90
2018-04-25T19:46:01.866Z,12.80
2018-04-25T19:48:29.330Z,12.70
2018-04-25T19:50:56.989Z,12.60
2018-04-25T19:53:24.537Z,12.50
2018-04-25T19:55:51.995Z,12.40
2018-04-25T19:58:19.471Z,12.40
2018-04-25T20:00:47.050Z,12.30
2018-04-25T20:03:14.542Z,12.20
2018-04-25T20:05:41.999Z,12.00
2018-04-25T20:08:10.051Z,11.90
2018-04-25T20:10:38.125Z,11.80
2018-04-25T20:13:06.271Z,11.70
2018-04-25T20:15:35.190Z,11.70
2018-04-25T20:18:02.794Z,11.60
2018-04-25T20:20:30.262Z,11.50
2018-04-25T20:22:58.179Z,11.40
2018-04-25T20:25:25.675Z,11.40
2018-04-25T20:27:53.198Z,11.40
2018-04-25T20:30:20.664Z,11.30
2018-04-25T20:32:48.118Z,11.30
2018-04-25T20:35:15.705Z,11.30
2018-04-25T20:37:43.159Z,11.20
2018-04-25T20:40:10.645Z,11.20
2018-04-25T20:42:38.226Z,11.30
2018-04-25T20:45:05.710Z,11.10
2018-04-25T20:47:33.170Z,11.10
2018-04-25T20:50:00.627Z,11.10
2018-04-25T20:52:28.194Z,11.10
2018-04-25T20:54:56.055Z,11.00
2018-04-25T20:57:23.663Z,10.90
2018-04-25T20:59:51.903Z,10.90
2018-04-25T21:02:19.480Z,10.90
2018-04-25T21:04:47.355Z,10.90
2018-04-25T21:07:15.031Z,11.00
2018-04-25T21:09:42.803Z,11.10
2018-04-25T21:12:10.262Z,11.20
2018-04-25T21:14:37.739Z,11.30
2018-04-25T21:17:05.198Z,11.40
2018-04-25T21:19:32.662Z,11.40
2018-04-25T21:22:00.130Z,11.50
2018-04-25T21:24:27.599Z,11.50
2018-04-25T21:26:55.055Z,11.50
2018-04-25T21:29:22.527Z,11.50
2018-04-25T21:31:49.989Z,11.50
2018-04-25T21:34:17.683Z,11.60
2018-04-25T21:36:45.372Z,11.70
2018-04-25T21:39:12.857Z,11.60
2018-04-25T21:41:40.357Z,11.60
2018-04-25T21:44:08.026Z,11.60
2018-04-25T21:46:35.486Z,11.50
2018-04-25T21:49:02.946Z,11.60
2018-04-25T21:51:30.502Z,11.50
2018-04-25T21:53:58.242Z,11.50
2018-04-25T21:56:25.699Z,11.40
2018-04-25T21:58:53.210Z,11.40
2018-04-25T22:01:21.442Z,11.40
2018-04-25T22:03:48.906Z,11.50
2018-04-25T22:06:16.405Z,11.40
2018-04-25T22:08:43.881Z,11.50
2018-04-25T22:11:11.342Z,11.50
2018-04-25T22:13:38.814Z,11.50
2018-04-25T22:16:06.280Z,11.40
2018-04-25T22:18:33.770Z,11.40
2018-04-25T22:21:01.238Z,11.50
2018-04-25T22:23:28.703Z,11.40
2018-04-25T22:25:56.159Z,11.40
2018-04-25T22:28:23.635Z,11.30
2018-04-25T22:30:51.094Z,11.30
2018-04-25T22:33:18.555Z,11.20
2018-04-25T22:35:46.020Z,11.10
2018-04-25T22:38:13.526Z,11.00
2018-04-25T22:40:41.141Z,11.00
2018-04-25T22:43:08.631Z,10.90
2018-04-25T22:45:36.103Z,10.80
2018-04-25T22:48:03.574Z,10.70
2018-04-25T22:50:31.271Z,10.60
2018-04-25T22:52:58.808Z,10.60
2018-04-25T22:55:26.272Z,10.60
2018-04-25T22:57:53.811Z,10.60
2018-04-25T23:00:21.477Z,10.50
2018-04-25T23:02:48.989Z,10.60
2018-04-25T23:05:16.468Z,10.50
2018-04-25T23:07:43.946Z,10.50
2018-04-25T23:10:11.630Z,10.50
2018-04-25T23:12:39.095Z,10.50
2018-04-25T23:15:06.760Z,10.50
2018-04-25T23:17:34.294Z,10.40
2018-04-25T23:20:02.064Z,10.40
2018-04-25T23:22:29.535Z,10.40
2018-04-25T23:24:57.366Z,10.40
2018-04-25T23:27:24.963Z,10.40
2018-04-25T23:29:52.511Z,10.30
2018-04-25T23:32:20.269Z,10.30
2018-04-25T23:34:47.740Z,10.20
2018-04-25T23:37:15.273Z,10.20
2018-04-25T23:39:42.871Z,10.10
2018-04-25T23:42:10.348Z,10.10
2018-04-25T23:44:37.876Z,10.10
2018-04-25T23:47:05.485Z,10.10
2018-04-25T23:49:33.105Z,10.20
2018-04-25T23:52:00.860Z,10.30
2018-04-25T23:54:28.330Z,10.30
2018-04-25T23:56:56.014Z,10.30
2018-04-25T23:59:23.543Z,10.30
